Terminal Aerodrome Forecast
Issued by NWS Paducah, KY

Home | Current Version | Previous Version | Graphics & Text | Print | Product List | Glossary On
Versions: 1 2 3 4 5 6 7 8 9 10 11 12 13 14 15 16
000
FTUS43 KPAH 250500
TAFPAH
TAF
KPAH 250520Z 2506/2606 19003KT P6SM SCT040 BKN250
      TEMPO 2508/2512 5SM BR
     FM251400 25005KT P6SM BKN250
     FM251800 31006KT P6SM SCT250
     FM260100 VRB03KT P6SM SKC=

USA.gov is the U.S. government's official web portal to all federal, state and local government web resources and services.